sensor_id;sensor_type;location;lat;lon;timestamp;temperature;humidity
21844;DHT22;11084;52.482;9.108;2023-02-28T00:01:18;-2.10;99.90
21844;DHT22;11084;52.482;9.108;2023-02-28T00:03:45;-2.10;99.90
21844;DHT22;11084;52.482;9.108;2023-02-28T00:06:11;-2.10;99.90
21844;DHT22;11084;52.482;9.108;2023-02-28T00:08:38;-2.10;99.90
21844;DHT22;11084;52.482;9.108;2023-02-28T00:11:10;-2.20;99.90
21844;DHT22;11084;52.482;9.108;2023-02-28T00:13:40;-2.20;99.90
21844;DHT22;11084;52.482;9.108;2023-02-28T00:16:13;-2.30;99.90
21844;DHT22;11084;52.482;9.108;2023-02-28T00:18:41;-2.30;99.90
21844;DHT22;11084;52.482;9.108;2023-02-28T00:21:07;-2.30;99.90
21844;DHT22;11084;52.482;9.108;2023-02-28T00:23:33;-2.40;99.90
21844;DHT22;11084;52.482;9.108;2023-02-28T00:26:00;-2.40;99.90
21844;DHT22;11084;52.482;9.108;2023-02-28T00:28:26;-2.40;99.90
21844;DHT22;11084;52.482;9.108;2023-02-28T00:30:52;-2.40;99.90
21844;DHT22;11084;52.482;9.108;2023-02-28T00:33:18;-2.40;99.90
21844;DHT22;11084;52.482;9.108;2023-02-28T00:35:44;-2.40;99.90
21844;DHT22;11084;52.482;9.108;2023-02-28T00:38:17;-2.40;99.90
21844;DHT22;11084;52.482;9.108;2023-02-28T00:40:43;-2.40;99.90
21844;DHT22;11084;52.482;9.108;2023-02-28T00:43:10;-2.40;99.90
21844;DHT22;11084;52.482;9.108;2023-02-28T00:45:36;-2.50;99.90
21844;DHT22;11084;52.482;9.108;2023-02-28T00:48:03;-2.10;99.90
21844;DHT22;11084;52.482;9.108;2023-02-28T00:50:29;-2.50;99.90
21844;DHT22;11084;52.482;9.108;2023-02-28T00:52:56;-2.50;99.90
21844;DHT22;11084;52.482;9.108;2023-02-28T00:55:22;-2.50;99.90
21844;DHT22;11084;52.482;9.108;2023-02-28T00:57:48;-2.60;99.90
21844;DHT22;11084;52.482;9.108;2023-02-28T01:00:15;-2.60;99.90
21844;DHT22;11084;52.482;9.108;2023-02-28T01:02:42;-2.60;99.90
21844;DHT22;11084;52.482;9.108;2023-02-28T01:05:08;-2.60;99.90
21844;DHT22;11084;52.482;9.108;2023-02-28T01:07:34;-2.60;99.90
21844;DHT22;11084;52.482;9.108;2023-02-28T01:10:00;-2.60;99.90
21844;DHT22;11084;52.482;9.108;2023-02-28T01:12:26;-2.40;99.90
21844;DHT22;11084;52.482;9.108;2023-02-28T01:14:52;-2.70;99.90
21844;DHT22;11084;52.482;9.108;2023-02-28T01:17:21;-2.70;99.90
21844;DHT22;11084;52.482;9.108;2023-02-28T01:19:47;-2.70;99.90
21844;DHT22;11084;52.482;9.108;2023-02-28T01:22:13;-2.30;99.90
21844;DHT22;11084;52.482;9.108;2023-02-28T01:24:41;-2.70;99.90
21844;DHT22;11084;52.482;9.108;2023-02-28T01:27:07;-2.80;99.90
21844;DHT22;11084;52.482;9.108;2023-02-28T01:29:36;-2.80;99.90
21844;DHT22;11084;52.482;9.108;2023-02-28T01:32:02;-2.80;99.90
21844;DHT22;11084;52.482;9.108;2023-02-28T01:34:29;-2.80;99.90
21844;DHT22;11084;52.482;9.108;2023-02-28T01:36:54;-2.80;99.90
21844;DHT22;11084;52.482;9.108;2023-02-28T01:39:21;-2.90;99.90
21844;DHT22;11084;52.482;9.108;2023-02-28T01:41:47;-2.90;99.90
21844;DHT22;11084;52.482;9.108;2023-02-28T01:47:34;-2.90;99.90
21844;DHT22;11084;52.482;9.108;2023-02-28T01:50:05;-2.90;99.90
21844;DHT22;11084;52.482;9.108;2023-02-28T01:52:35;-3.00;99.90
21844;DHT22;11084;52.482;9.108;2023-02-28T01:55:04;-2.60;99.90
21844;DHT22;11084;52.482;9.108;2023-02-28T01:57:35;-3.00;99.90
21844;DHT22;11084;52.482;9.108;2023-02-28T02:00:17;-2.20;99.90
21844;DHT22;11084;52.482;9.108;2023-02-28T02:02:51;-3.00;99.90
21844;DHT22;11084;52.482;9.108;2023-02-28T02:05:26;-2.90;99.90
21844;DHT22;11084;52.482;9.108;2023-02-28T02:08:24;-3.10;99.90
21844;DHT22;11084;52.482;9.108;2023-02-28T02:11:01;-3.10;99.90
21844;DHT22;11084;52.482;9.108;2023-02-28T02:19:00;-3.20;99.90
21844;DHT22;11084;52.482;9.108;2023-02-28T02:28:22;-3.20;99.90
21844;DHT22;11084;52.482;9.108;2023-02-28T02:31:29;-3.30;99.90
21844;DHT22;11084;52.482;9.108;2023-02-28T02:34:29;-3.30;99.90
21844;DHT22;11084;52.482;9.108;2023-02-28T02:45:56;-3.40;99.90
21844;DHT22;11084;52.482;9.108;2023-02-28T02:48:29;-3.40;99.90
21844;DHT22;11084;52.482;9.108;2023-02-28T02:51:04;-3.40;99.90
21844;DHT22;11084;52.482;9.108;2023-02-28T02:53:44;-3.50;99.90
21844;DHT22;11084;52.482;9.108;2023-02-28T02:56:18;-2.20;99.90
21844;DHT22;11084;52.482;9.108;2023-02-28T02:58:47;-2.30;99.90
21844;DHT22;11084;52.482;9.108;2023-02-28T03:01:20;-3.50;99.90
21844;DHT22;11084;52.482;9.108;2023-02-28T03:04:15;-3.60;99.90
21844;DHT22;11084;52.482;9.108;2023-02-28T03:06:42;-3.00;99.90
21844;DHT22;11084;52.482;9.108;2023-02-28T03:09:12;-3.50;99.90
21844;DHT22;11084;52.482;9.108;2023-02-28T03:11:39;-3.60;99.90
21844;DHT22;11084;52.482;9.108;2023-02-28T03:20:13;-3.70;99.90
21844;DHT22;11084;52.482;9.108;2023-02-28T03:23:17;-3.70;99.90
21844;DHT22;11084;52.482;9.108;2023-02-28T03:26:01;-3.00;99.90
21844;DHT22;11084;52.482;9.108;2023-02-28T03:29:08;-3.70;99.90
21844;DHT22;11084;52.482;9.108;2023-02-28T03:32:05;-3.70;99.90
21844;DHT22;11084;52.482;9.108;2023-02-28T03:34:50;-3.80;99.90
21844;DHT22;11084;52.482;9.108;2023-02-28T03:37:24;-2.30;99.90
21844;DHT22;11084;52.482;9.108;2023-02-28T03:40:00;-3.80;99.90
21844;DHT22;11084;52.482;9.108;2023-02-28T03:42:35;-3.80;99.90
21844;DHT22;11084;52.482;9.108;2023-02-28T03:45:05;-3.80;99.90
21844;DHT22;11084;52.482;9.108;2023-02-28T03:50:24;-3.90;99.90
21844;DHT22;11084;52.482;9.108;2023-02-28T03:53:21;-3.90;99.90
21844;DHT22;11084;52.482;9.108;2023-02-28T03:56:01;-3.90;99.90
21844;DHT22;11084;52.482;9.108;2023-02-28T04:01:57;-4.00;99.90
21844;DHT22;11084;52.482;9.108;2023-02-28T04:04:18;-4.00;99.90
21844;DHT22;11084;52.482;9.108;2023-02-28T04:06:44;-4.00;99.90
21844;DHT22;11084;52.482;9.108;2023-02-28T04:09:13;-4.10;99.90
21844;DHT22;11084;52.482;9.108;2023-02-28T04:11:45;-4.10;99.90
21844;DHT22;11084;52.482;9.108;2023-02-28T04:14:17;-4.00;99.90
21844;DHT22;11084;52.482;9.108;2023-02-28T04:16:43;-4.20;99.90
21844;DHT22;11084;52.482;9.108;2023-02-28T04:19:11;-3.60;99.90
21844;DHT22;11084;52.482;9.108;2023-02-28T04:21:41;-4.20;99.90
21844;DHT22;11084;52.482;9.108;2023-02-28T04:24:11;-4.20;99.90
21844;DHT22;11084;52.482;9.108;2023-02-28T04:26:44;-4.20;99.90
21844;DHT22;11084;52.482;9.108;2023-02-28T04:29:14;-4.30;99.90
21844;DHT22;11084;52.482;9.108;2023-02-28T04:31:48;-4.30;99.90
21844;DHT22;11084;52.482;9.108;2023-02-28T04:34:15;-2.90;99.90
21844;DHT22;11084;52.482;9.108;2023-02-28T04:36:43;-4.30;99.90
21844;DHT22;11084;52.482;9.108;2023-02-28T04:39:11;-4.30;99.90
21844;DHT22;11084;52.482;9.108;2023-02-28T04:41:37;-4.20;99.90
21844;DHT22;11084;52.482;9.108;2023-02-28T04:44:04;-3.10;99.90
21844;DHT22;11084;52.482;9.108;2023-02-28T04:46:30;-4.40;99.90
21844;DHT22;11084;52.482;9.108;2023-02-28T04:48:56;-3.90;99.90
21844;DHT22;11084;52.482;9.108;2023-02-28T04:51:22;-2.60;99.90
21844;DHT22;11084;52.482;9.108;2023-02-28T04:53:49;-4.50;99.90
21844;DHT22;11084;52.482;9.108;2023-02-28T04:56:16;-2.50;99.90
21844;DHT22;11084;52.482;9.108;2023-02-28T04:58:43;-4.50;99.90
21844;DHT22;11084;52.482;9.108;2023-02-28T05:01:27;-4.60;99.90
21844;DHT22;11084;52.482;9.108;2023-02-28T05:03:56;-4.50;99.90
21844;DHT22;11084;52.482;9.108;2023-02-28T05:06:26;-3.70;99.90
21844;DHT22;11084;52.482;9.108;2023-02-28T05:08:53;-3.30;99.90
21844;DHT22;11084;52.482;9.108;2023-02-28T05:11:28;-4.50;99.90
21844;DHT22;11084;52.482;9.108;2023-02-28T05:14:04;-3.10;99.90
21844;DHT22;11084;52.482;9.108;2023-02-28T05:16:32;-4.60;99.90
21844;DHT22;11084;52.482;9.108;2023-02-28T05:18:58;-4.70;99.90
21844;DHT22;11084;52.482;9.108;2023-02-28T05:21:31;-4.40;99.90
21844;DHT22;11084;52.482;9.108;2023-02-28T05:24:03;-4.70;99.90
21844;DHT22;11084;52.482;9.108;2023-02-28T05:26:35;-2.90;99.90
21844;DHT22;11084;52.482;9.108;2023-02-28T05:29:01;-3.00;99.90
21844;DHT22;11084;52.482;9.108;2023-02-28T05:31:28;-3.90;99.90
21844;DHT22;11084;52.482;9.108;2023-02-28T05:33:54;-4.70;99.90
21844;DHT22;11084;52.482;9.108;2023-02-28T05:36:20;-4.70;99.90
21844;DHT22;11084;52.482;9.108;2023-02-28T05:38:47;-4.80;99.90
21844;DHT22;11084;52.482;9.108;2023-02-28T05:41:15;-2.80;99.90
21844;DHT22;11084;52.482;9.108;2023-02-28T05:43:44;-4.80;99.90
21844;DHT22;11084;52.482;9.108;2023-02-28T05:46:12;-4.90;99.90
21844;DHT22;11084;52.482;9.108;2023-02-28T05:48:39;-4.80;99.90
21844;DHT22;11084;52.482;9.108;2023-02-28T05:51:07;-4.90;99.90
21844;DHT22;11084;52.482;9.108;2023-02-28T05:53:34;-4.70;99.90
21844;DHT22;11084;52.482;9.108;2023-02-28T05:56:01;-4.00;99.90
21844;DHT22;11084;52.482;9.108;2023-02-28T05:58:27;-4.90;99.90
21844;DHT22;11084;52.482;9.108;2023-02-28T06:00:59;-5.00;99.90
21844;DHT22;11084;52.482;9.108;2023-02-28T06:03:27;-4.90;99.90
21844;DHT22;11084;52.482;9.108;2023-02-28T06:05:53;-4.40;99.90
21844;DHT22;11084;52.482;9.108;2023-02-28T06:08:19;-5.00;99.90
21844;DHT22;11084;52.482;9.108;2023-02-28T06:10:45;-3.50;99.90
21844;DHT22;11084;52.482;9.108;2023-02-28T06:13:12;-5.00;99.90
21844;DHT22;11084;52.482;9.108;2023-02-28T06:15:38;-5.00;99.90
21844;DHT22;11084;52.482;9.108;2023-02-28T06:18:05;-4.10;99.90
21844;DHT22;11084;52.482;9.108;2023-02-28T06:20:31;-3.80;99.90
21844;DHT22;11084;52.482;9.108;2023-02-28T06:22:57;-3.40;99.90
21844;DHT22;11084;52.482;9.108;2023-02-28T06:25:27;-3.20;99.90
21844;DHT22;11084;52.482;9.108;2023-02-28T06:27:54;-3.90;99.90
21844;DHT22;11084;52.482;9.108;2023-02-28T06:30:21;-5.00;99.90
21844;DHT22;11084;52.482;9.108;2023-02-28T06:32:52;-5.00;99.90
21844;DHT22;11084;52.482;9.108;2023-02-28T06:35:20;-4.90;99.90
21844;DHT22;11084;52.482;9.108;2023-02-28T06:37:46;-4.60;99.90
21844;DHT22;11084;52.482;9.108;2023-02-28T06:40:13;-4.10;99.90
21844;DHT22;11084;52.482;9.108;2023-02-28T06:42:39;-3.90;99.90
21844;DHT22;11084;52.482;9.108;2023-02-28T06:45:06;-3.70;99.90
21844;DHT22;11084;52.482;9.108;2023-02-28T06:47:36;-3.60;99.90
21844;DHT22;11084;52.482;9.108;2023-02-28T06:50:03;-2.70;99.90
21844;DHT22;11084;52.482;9.108;2023-02-28T06:52:30;-1.20;99.90
21844;DHT22;11084;52.482;9.108;2023-02-28T06:54:56;0.20;99.90
21844;DHT22;11084;52.482;9.108;2023-02-28T06:57:29;1.50;99.90
21844;DHT22;11084;52.482;9.108;2023-02-28T06:59:58;2.90;99.90
21844;DHT22;11084;52.482;9.108;2023-02-28T07:02:26;4.00;99.90
21844;DHT22;11084;52.482;9.108;2023-02-28T07:04:52;5.10;99.90
21844;DHT22;11084;52.482;9.108;2023-02-28T07:07:18;6.00;99.90
21844;DHT22;11084;52.482;9.108;2023-02-28T07:09:44;7.00;99.90
21844;DHT22;11084;52.482;9.108;2023-02-28T07:12:11;7.70;99.90
21844;DHT22;11084;52.482;9.108;2023-02-28T07:14:37;8.20;99.90
21844;DHT22;11084;52.482;9.108;2023-02-28T07:17:03;8.60;99.90
21844;DHT22;11084;52.482;9.108;2023-02-28T07:19:29;8.80;99.70
21844;DHT22;11084;52.482;9.108;2023-02-28T07:21:55;8.80;99.50
21844;DHT22;11084;52.482;9.108;2023-02-28T07:24:21;8.20;99.90
21844;DHT22;11084;52.482;9.108;2023-02-28T07:26:49;7.60;99.90
21844;DHT22;11084;52.482;9.108;2023-02-28T07:29:15;7.20;99.90
21844;DHT22;11084;52.482;9.108;2023-02-28T07:31:41;7.00;99.90
21844;DHT22;11084;52.482;9.108;2023-02-28T07:34:07;6.80;99.90
21844;DHT22;11084;52.482;9.108;2023-02-28T07:36:33;6.80;99.90
21844;DHT22;11084;52.482;9.108;2023-02-28T07:38:59;6.70;99.90
21844;DHT22;11084;52.482;9.108;2023-02-28T07:41:25;6.70;99.90
21844;DHT22;11084;52.482;9.108;2023-02-28T07:43:54;6.60;99.90
21844;DHT22;11084;52.482;9.108;2023-02-28T07:46:22;6.60;99.90
21844;DHT22;11084;52.482;9.108;2023-02-28T07:48:48;6.60;99.90
21844;DHT22;11084;52.482;9.108;2023-02-28T07:51:16;6.70;99.90
21844;DHT22;11084;52.482;9.108;2023-02-28T07:53:42;6.70;99.90
21844;DHT22;11084;52.482;9.108;2023-02-28T07:56:08;6.80;99.90
21844;DHT22;11084;52.482;9.108;2023-02-28T07:58:35;7.00;99.90
21844;DHT22;11084;52.482;9.108;2023-02-28T08:01:07;7.00;99.90
21844;DHT22;11084;52.482;9.108;2023-02-28T08:03:34;7.20;99.90
21844;DHT22;11084;52.482;9.108;2023-02-28T08:06:03;7.30;99.90
21844;DHT22;11084;52.482;9.108;2023-02-28T08:08:30;7.30;99.90
21844;DHT22;11084;52.482;9.108;2023-02-28T08:11:01;7.30;99.90
21844;DHT22;11084;52.482;9.108;2023-02-28T08:13:29;7.50;99.90
21844;DHT22;11084;52.482;9.108;2023-02-28T08:15:56;7.50;99.90
21844;DHT22;11084;52.482;9.108;2023-02-28T08:18:23;7.60;99.90
21844;DHT22;11084;52.482;9.108;2023-02-28T08:20:55;7.60;99.90
21844;DHT22;11084;52.482;9.108;2023-02-28T08:23:23;7.70;99.90
21844;DHT22;11084;52.482;9.108;2023-02-28T08:25:56;7.70;99.90
21844;DHT22;11084;52.482;9.108;2023-02-28T08:28:26;7.80;99.90
21844;DHT22;11084;52.482;9.108;2023-02-28T08:30:52;7.70;99.90
21844;DHT22;11084;52.482;9.108;2023-02-28T08:33:18;7.60;99.90
21844;DHT22;11084;52.482;9.108;2023-02-28T08:35:44;7.60;99.90
21844;DHT22;11084;52.482;9.108;2023-02-28T08:38:10;7.50;99.90
21844;DHT22;11084;52.482;9.108;2023-02-28T08:40:36;7.30;99.90
21844;DHT22;11084;52.482;9.108;2023-02-28T08:43:03;7.10;99.90
21844;DHT22;11084;52.482;9.108;2023-02-28T08:45:29;6.90;99.90
21844;DHT22;11084;52.482;9.108;2023-02-28T08:47:56;6.90;99.90
21844;DHT22;11084;52.482;9.108;2023-02-28T08:50:22;6.80;99.90
21844;DHT22;11084;52.482;9.108;2023-02-28T08:52:48;6.70;99.90
21844;DHT22;11084;52.482;9.108;2023-02-28T08:55:14;6.80;99.90
21844;DHT22;11084;52.482;9.108;2023-02-28T08:57:41;6.80;99.90
21844;DHT22;11084;52.482;9.108;2023-02-28T09:00:07;6.90;99.90
21844;DHT22;11084;52.482;9.108;2023-02-28T09:02:34;6.90;99.90
21844;DHT22;11084;52.482;9.108;2023-02-28T09:05:03;7.00;99.90
21844;DHT22;11084;52.482;9.108;2023-02-28T09:07:29;7.20;99.90
21844;DHT22;11084;52.482;9.108;2023-02-28T09:09:55;7.30;99.90
21844;DHT22;11084;52.482;9.108;2023-02-28T09:12:27;7.30;99.90
21844;DHT22;11084;52.482;9.108;2023-02-28T09:14:53;7.40;99.90
21844;DHT22;11084;52.482;9.108;2023-02-28T09:17:21;7.30;99.90
21844;DHT22;11084;52.482;9.108;2023-02-28T09:19:48;7.30;99.90
21844;DHT22;11084;52.482;9.108;2023-02-28T09:22:14;7.10;99.90
21844;DHT22;11084;52.482;9.108;2023-02-28T09:24:41;7.00;99.90
21844;DHT22;11084;52.482;9.108;2023-02-28T09:27:07;7.00;99.90
21844;DHT22;11084;52.482;9.108;2023-02-28T09:29:34;6.90;99.90
21844;DHT22;11084;52.482;9.108;2023-02-28T09:32:00;7.00;99.90
21844;DHT22;11084;52.482;9.108;2023-02-28T09:34:27;7.00;99.90
21844;DHT22;11084;52.482;9.108;2023-02-28T09:36:58;7.10;99.90
21844;DHT22;11084;52.482;9.108;2023-02-28T09:39:24;7.10;99.90
21844;DHT22;11084;52.482;9.108;2023-02-28T09:41:54;7.20;99.90
21844;DHT22;11084;52.482;9.108;2023-02-28T09:44:40;7.20;99.90
21844;DHT22;11084;52.482;9.108;2023-02-28T09:47:11;7.20;99.90
21844;DHT22;11084;52.482;9.108;2023-02-28T09:49:43;7.20;99.90
21844;DHT22;11084;52.482;9.108;2023-02-28T09:52:30;7.20;99.90
21844;DHT22;11084;52.482;9.108;2023-02-28T09:55:26;7.20;99.90
21844;DHT22;11084;52.482;9.108;2023-02-28T09:57:54;7.20;99.90
21844;DHT22;11084;52.482;9.108;2023-02-28T10:06:53;7.60;99.90
21844;DHT22;11084;52.482;9.108;2023-02-28T10:09:30;7.60;99.90
21844;DHT22;11084;52.482;9.108;2023-02-28T10:12:03;7.60;99.90
21844;DHT22;11084;52.482;9.108;2023-02-28T10:14:33;7.50;99.90
21844;DHT22;11084;52.482;9.108;2023-02-28T10:17:04;7.40;99.90
21844;DHT22;11084;52.482;9.108;2023-02-28T10:22:36;7.40;99.90
21844;DHT22;11084;52.482;9.108;2023-02-28T10:25:19;7.40;99.20
21844;DHT22;11084;52.482;9.108;2023-02-28T10:27:48;7.30;98.30
21844;DHT22;11084;52.482;9.108;2023-02-28T10:30:15;7.40;99.90
21844;DHT22;11084;52.482;9.108;2023-02-28T10:32:50;7.30;99.70
21844;DHT22;11084;52.482;9.108;2023-02-28T10:35:26;7.40;99.20
21844;DHT22;11084;52.482;9.108;2023-02-28T10:37:57;7.40;99.90
21844;DHT22;11084;52.482;9.108;2023-02-28T10:40:27;7.40;99.90
21844;DHT22;11084;52.482;9.108;2023-02-28T10:43:00;7.40;99.90
21844;DHT22;11084;52.482;9.108;2023-02-28T10:45:30;7.50;99.90
21844;DHT22;11084;52.482;9.108;2023-02-28T10:50:44;7.40;97.50
21844;DHT22;11084;52.482;9.108;2023-02-28T11:01:41;7.40;97.60
21844;DHT22;11084;52.482;9.108;2023-02-28T11:07:16;7.40;98.10
21844;DHT22;11084;52.482;9.108;2023-02-28T11:09:46;7.40;97.50
21844;DHT22;11084;52.482;9.108;2023-02-28T11:13:25;7.50;97.80
21844;DHT22;11084;52.482;9.108;2023-02-28T11:15:33;7.50;97.00
21844;DHT22;11084;52.482;9.108;2023-02-28T11:20:51;7.50;95.60
21844;DHT22;11084;52.482;9.108;2023-02-28T11:23:19;7.50;95.90
21844;DHT22;11084;52.482;9.108;2023-02-28T11:25:49;7.60;97.70
21844;DHT22;11084;52.482;9.108;2023-02-28T11:28:34;7.60;96.60
21844;DHT22;11084;52.482;9.108;2023-02-28T11:33:53;7.70;96.90
21844;DHT22;11084;52.482;9.108;2023-02-28T11:38:51;7.80;97.10
21844;DHT22;11084;52.482;9.108;2023-02-28T11:47:50;7.80;94.70
21844;DHT22;11084;52.482;9.108;2023-02-28T11:53:17;7.60;93.40
21844;DHT22;11084;52.482;9.108;2023-02-28T11:56:19;7.50;93.30
21844;DHT22;11084;52.482;9.108;2023-02-28T11:58:59;7.30;93.50
21844;DHT22;11084;52.482;9.108;2023-02-28T12:02:26;7.30;93.80
21844;DHT22;11084;52.482;9.108;2023-02-28T12:10:57;7.00;93.50
21844;DHT22;11084;52.482;9.108;2023-02-28T12:16:40;7.00;93.30
21844;DHT22;11084;52.482;9.108;2023-02-28T12:27:47;6.90;91.80
21844;DHT22;11084;52.482;9.108;2023-02-28T12:30:27;7.00;92.70
21844;DHT22;11084;52.482;9.108;2023-02-28T12:33:06;7.00;90.80
21844;DHT22;11084;52.482;9.108;2023-02-28T12:35:39;7.10;92.40
21844;DHT22;11084;52.482;9.108;2023-02-28T12:38:22;7.10;92.20
21844;DHT22;11084;52.482;9.108;2023-02-28T12:43:26;7.10;92.80
21844;DHT22;11084;52.482;9.108;2023-02-28T12:45:59;7.10;92.30
21844;DHT22;11084;52.482;9.108;2023-02-28T12:48:42;7.00;91.70
21844;DHT22;11084;52.482;9.108;2023-02-28T12:51:12;7.10;92.00
21844;DHT22;11084;52.482;9.108;2023-02-28T12:56:46;7.10;91.50
21844;DHT22;11084;52.482;9.108;2023-02-28T12:59:39;7.10;90.40
21844;DHT22;11084;52.482;9.108;2023-02-28T13:10:54;6.90;91.80
21844;DHT22;11084;52.482;9.108;2023-02-28T13:13:27;6.80;90.30
21844;DHT22;11084;52.482;9.108;2023-02-28T13:16:00;6.80;91.90
21844;DHT22;11084;52.482;9.108;2023-02-28T13:18:31;6.90;91.90
21844;DHT22;11084;52.482;9.108;2023-02-28T13:21:09;6.80;90.70
21844;DHT22;11084;52.482;9.108;2023-02-28T13:24:03;6.80;89.20
21844;DHT22;11084;52.482;9.108;2023-02-28T13:34:42;6.70;87.40
21844;DHT22;11084;52.482;9.108;2023-02-28T13:39:50;6.60;90.90
21844;DHT22;11084;52.482;9.108;2023-02-28T14:01:58;6.10;91.60
21844;DHT22;11084;52.482;9.108;2023-02-28T14:07:30;6.10;91.00
21844;DHT22;11084;52.482;9.108;2023-02-28T14:10:03;6.10;92.00
21844;DHT22;11084;52.482;9.108;2023-02-28T14:13:03;6.10;92.00
21844;DHT22;11084;52.482;9.108;2023-02-28T14:16:02;6.10;91.90
21844;DHT22;11084;52.482;9.108;2023-02-28T14:18:35;6.00;92.40
21844;DHT22;11084;52.482;9.108;2023-02-28T14:24:17;6.00;92.50
21844;DHT22;11084;52.482;9.108;2023-02-28T14:30:37;5.90;91.80
21844;DHT22;11084;52.482;9.108;2023-02-28T14:33:27;5.90;92.00
21844;DHT22;11084;52.482;9.108;2023-02-28T14:36:27;5.90;92.50
21844;DHT22;11084;52.482;9.108;2023-02-28T14:39:00;5.80;92.00
21844;DHT22;11084;52.482;9.108;2023-02-28T14:41:32;5.80;93.00
21844;DHT22;11084;52.482;9.108;2023-02-28T14:44:22;5.80;93.20
21844;DHT22;11084;52.482;9.108;2023-02-28T14:47:01;5.80;92.80
21844;DHT22;11084;52.482;9.108;2023-02-28T14:49:44;5.70;93.20
21844;DHT22;11084;52.482;9.108;2023-02-28T14:52:32;3.90;92.50
21844;DHT22;11084;52.482;9.108;2023-02-28T14:55:05;5.60;93.50
21844;DHT22;11084;52.482;9.108;2023-02-28T14:57:50;5.70;93.70
21844;DHT22;11084;52.482;9.108;2023-02-28T15:00:25;5.60;93.30
21844;DHT22;11084;52.482;9.108;2023-02-28T15:02:54;5.60;93.20
21844;DHT22;11084;52.482;9.108;2023-02-28T15:05:41;5.60;93.40
21844;DHT22;11084;52.482;9.108;2023-02-28T15:08:14;5.50;92.90
21844;DHT22;11084;52.482;9.108;2023-02-28T15:11:05;5.50;93.00
21844;DHT22;11084;52.482;9.108;2023-02-28T15:13:52;5.50;93.20
21844;DHT22;11084;52.482;9.108;2023-02-28T15:19:02;5.40;93.20
21844;DHT22;11084;52.482;9.108;2023-02-28T15:21:45;5.30;93.40
21844;DHT22;11084;52.482;9.108;2023-02-28T15:27:20;5.30;94.30
21844;DHT22;11084;52.482;9.108;2023-02-28T15:29:57;5.30;94.20
21844;DHT22;11084;52.482;9.108;2023-02-28T15:34:57;3.60;93.30
21844;DHT22;11084;52.482;9.108;2023-02-28T15:37:37;5.20;94.00
21844;DHT22;11084;52.482;9.108;2023-02-28T15:40:22;5.20;93.40
21844;DHT22;11084;52.482;9.108;2023-02-28T15:43:13;5.20;94.00
21844;DHT22;11084;52.482;9.108;2023-02-28T15:45:52;5.20;93.40
21844;DHT22;11084;52.482;9.108;2023-02-28T15:48:35;5.10;93.70
21844;DHT22;11084;52.482;9.108;2023-02-28T15:51:08;5.10;94.30
21844;DHT22;11084;52.482;9.108;2023-02-28T15:53:43;5.10;94.50
21844;DHT22;11084;52.482;9.108;2023-02-28T15:56:27;5.00;94.50
21844;DHT22;11084;52.482;9.108;2023-02-28T15:59:08;5.00;93.80
21844;DHT22;11084;52.482;9.108;2023-02-28T16:01:44;4.90;94.40
21844;DHT22;11084;52.482;9.108;2023-02-28T16:04:18;3.60;94.10
21844;DHT22;11084;52.482;9.108;2023-02-28T16:07:01;4.90;95.10
21844;DHT22;11084;52.482;9.108;2023-02-28T16:09:28;4.80;95.00
21844;DHT22;11084;52.482;9.108;2023-02-28T16:12:00;4.80;95.90
21844;DHT22;11084;52.482;9.108;2023-02-28T16:14:28;4.80;95.30
21844;DHT22;11084;52.482;9.108;2023-02-28T16:17:05;4.70;95.30
21844;DHT22;11084;52.482;9.108;2023-02-28T16:19:36;4.70;95.50
21844;DHT22;11084;52.482;9.108;2023-02-28T16:22:02;4.60;96.50
21844;DHT22;11084;52.482;9.108;2023-02-28T16:24:28;4.60;96.80
21844;DHT22;11084;52.482;9.108;2023-02-28T16:26:56;4.50;97.30
21844;DHT22;11084;52.482;9.108;2023-02-28T16:29:30;4.40;97.30
21844;DHT22;11084;52.482;9.108;2023-02-28T16:31:58;4.40;97.60
21844;DHT22;11084;52.482;9.108;2023-02-28T16:34:25;4.30;98.10
21844;DHT22;11084;52.482;9.108;2023-02-28T16:36:52;4.20;97.90
21844;DHT22;11084;52.482;9.108;2023-02-28T16:39:18;4.20;98.20
21844;DHT22;11084;52.482;9.108;2023-02-28T16:41:50;4.10;98.20
21844;DHT22;11084;52.482;9.108;2023-02-28T16:44:33;4.00;98.10
21844;DHT22;11084;52.482;9.108;2023-02-28T16:47:01;3.90;98.50
21844;DHT22;11084;52.482;9.108;2023-02-28T16:49:28;3.90;98.60
21844;DHT22;11084;52.482;9.108;2023-02-28T16:51:54;3.80;98.90
21844;DHT22;11084;52.482;9.108;2023-02-28T16:54:20;2.70;98.50
21844;DHT22;11084;52.482;9.108;2023-02-28T16:56:50;3.70;99.10
21844;DHT22;11084;52.482;9.108;2023-02-28T16:59:19;3.60;99.20
21844;DHT22;11084;52.482;9.108;2023-02-28T17:01:48;3.50;99.10
21844;DHT22;11084;52.482;9.108;2023-02-28T17:04:17;3.40;98.90
21844;DHT22;11084;52.482;9.108;2023-02-28T17:06:44;3.40;98.90
21844;DHT22;11084;52.482;9.108;2023-02-28T17:09:17;3.30;98.80
21844;DHT22;11084;52.482;9.108;2023-02-28T17:11:45;3.20;98.80
21844;DHT22;11084;52.482;9.108;2023-02-28T17:14:13;3.20;98.80
21844;DHT22;11084;52.482;9.108;2023-02-28T17:16:40;3.10;98.80
21844;DHT22;11084;52.482;9.108;2023-02-28T17:19:13;3.00;99.10
21844;DHT22;11084;52.482;9.108;2023-02-28T17:21:41;3.00;99.50
21844;DHT22;11084;52.482;9.108;2023-02-28T17:24:08;2.90;99.70
21844;DHT22;11084;52.482;9.108;2023-02-28T17:26:39;2.80;99.70
21844;DHT22;11084;52.482;9.108;2023-02-28T17:29:17;2.70;99.90
21844;DHT22;11084;52.482;9.108;2023-02-28T17:31:44;2.60;99.90
21844;DHT22;11084;52.482;9.108;2023-02-28T17:34:11;2.50;99.90
21844;DHT22;11084;52.482;9.108;2023-02-28T17:36:45;2.40;99.90
21844;DHT22;11084;52.482;9.108;2023-02-28T17:39:13;2.30;99.90
21844;DHT22;11084;52.482;9.108;2023-02-28T17:41:41;2.30;99.90
21844;DHT22;11084;52.482;9.108;2023-02-28T17:44:14;2.20;99.90
21844;DHT22;11084;52.482;9.108;2023-02-28T17:46:46;2.10;99.90
21844;DHT22;11084;52.482;9.108;2023-02-28T17:49:19;2.00;99.90
21844;DHT22;11084;52.482;9.108;2023-02-28T17:51:52;1.90;99.90
21844;DHT22;11084;52.482;9.108;2023-02-28T17:54:24;1.80;99.90
21844;DHT22;11084;52.482;9.108;2023-02-28T17:56:56;1.70;99.90
21844;DHT22;11084;52.482;9.108;2023-02-28T17:59:29;1.60;99.90
21844;DHT22;11084;52.482;9.108;2023-02-28T18:02:04;1.60;99.90
21844;DHT22;11084;52.482;9.108;2023-02-28T18:19:03;1.00;99.90
21844;DHT22;11084;52.482;9.108;2023-02-28T18:21:30;0.80;99.90
21844;DHT22;11084;52.482;9.108;2023-02-28T18:23:58;0.70;99.90
21844;DHT22;11084;52.482;9.108;2023-02-28T18:26:24;0.70;99.90
21844;DHT22;11084;52.482;9.108;2023-02-28T18:28:50;0.60;99.90
21844;DHT22;11084;52.482;9.108;2023-02-28T18:31:19;0.50;99.90
21844;DHT22;11084;52.482;9.108;2023-02-28T18:33:51;0.40;99.90
21844;DHT22;11084;52.482;9.108;2023-02-28T18:36:19;0.30;99.90
21844;DHT22;11084;52.482;9.108;2023-02-28T18:38:48;0.20;99.90
21844;DHT22;11084;52.482;9.108;2023-02-28T18:41:17;0.10;99.90
21844;DHT22;11084;52.482;9.108;2023-02-28T18:43:47;0.10;99.90
21844;DHT22;11084;52.482;9.108;2023-02-28T18:46:16;0.00;99.90
21844;DHT22;11084;52.482;9.108;2023-02-28T18:48:43;-0.10;99.90
21844;DHT22;11084;52.482;9.108;2023-02-28T18:51:18;-0.10;99.90
21844;DHT22;11084;52.482;9.108;2023-02-28T18:53:46;-0.20;99.90
21844;DHT22;11084;52.482;9.108;2023-02-28T18:56:16;-0.30;99.90
21844;DHT22;11084;52.482;9.108;2023-02-28T18:58:44;-0.30;99.90
21844;DHT22;11084;52.482;9.108;2023-02-28T19:01:27;-0.40;99.90